Anita, Pennsylvania
Current Conditions -  °F | °C
As of 10:53 AM on Monday 26 Jan 2015 (Local Time) from KDUJ Reporting Station
Light Snow Light Snow  
Wind Chill:   Ceiling: 1500
Heat Index: 20°   Visibility: 0.5mi
Dew Point: 16°   Wind: 9mph
Humidity: 85%   Direction: 100°E
Pressure: 29.72"   Gusts: NA
Location:  41°N, 78.96°W
Report Text: KDUJ 261553Z AUTO 10008KT 1/2SM -SN FZFG BKN015 OVC024 M07/M09 A2972 RMK AO2 SLP089 P0001 T10671089
Loading
Personal Weather Stations






























Interactive Weather Map New forecast layout! Learn more

10-Day Weather Forecast

Advertisements
Track Severe Weather on mobile